• Join FlightAware (Why Join?)
  • Login
  • US Flag 
06:08AM EDT


 

Airport Tracker/Info


-or-


 

Live Flight TrackerFlight Track Log ✈ JBU917 ✈ 10-Apr-2013 ✈ KJFK - KORD

Flight Track Log - Related Links

Times and Time Zones

All times are in EDT time to prevent confusion due to time zone crossing. See the JBU917 flight status page for this flight to view local times or setup timezone preferences in your user account.

Time Position Orientation Groundspeed Altitude Reporting Facility
EDT Latitude Longitude Course Direction KTS MPH feet Rate Location/Type
06:45PM 40.5833 -73.8167 14° North 193 222 2,100  Level New York TRACON
06:46PM 40.5667 -73.7500 108° East 262 302 3,800 2,040 Climbing New York TRACON
06:47PM 40.6167 -73.6667 52° Northeast 310 357 6,200 2,760 Climbing New York TRACON
06:48PM 40.9690 -73.5905 21° North  Level FlightAware Approximate
06:48PM 40.6833 -73.5667 49° Northeast 312 359 9,400  Level New York TRACON
06:49PM 41.0556 -73.5407 27° Northeast  Level FlightAware Approximate
06:50PM 41.1401 -73.4844 27° Northeast  Level FlightAware Approximate
06:50PM 40.7783 -73.4789 35° Northeast 306 352 13,000  Level Boston Center
06:51PM 41.2284 -73.4405 14° North  Level FlightAware Approximate
06:51PM 40.8572 -73.5214 338° Northwest 254 292 14,800  Level Boston Center
06:52PM 40.9572 -73.5339 355° North 301 346 16,200 1,080 Climbing Boston Center
06:53PM 41.0675 -73.5522 353° North 359 413 17,000 420 Climbing Boston Center
06:54PM 41.1594 -73.5153 17° North 370 426 17,100 300 Climbing Boston Center
06:55PM 41.2664 -73.4481 25° Northeast 381 438 17,700 1,140 Climbing Boston Center
06:56PM 41.3711 -73.3861 24° Northeast 395 455 19,400 1,620 Climbing Boston Center
06:57PM 41.4736 -73.3294 22° Northeast 400 460 21,100 1,740 Climbing Boston Center
06:58PM 41.5819 -73.3336 358° North 384 442 22,900 1,620 Climbing Boston Center
06:59PM 41.6925 -73.3325 360° North 389 448 24,400 1,380 Climbing Boston Center
07:00PM 41.8050 -73.3369 358° North 394 453 25,800 1,500 Climbing Boston Center
07:01PM 41.9197 -73.3356 North 400 460 27,500 1,080 Climbing Boston Center
07:02PM 42.0342 -73.3400 358° North 407 468 28,000 660 Climbing Boston Center
07:03PM 42.1572 -73.3392 360° North 414 476 28,900 1,260 Climbing Boston Center
07:04PM 42.2739 -73.3408 359° North 421 484 30,600 1,140 Climbing Boston Center
07:05PM 42.3947 -73.3342 North 421 484 31,200 720 Climbing Boston Center
07:06PM 42.5136 -73.3358 359° North 421 484 32,100 960 Climbing Boston Center
07:07PM 42.6156 -73.3456 356° North 416 479 33,200 900 Climbing Boston Center
07:08PM 42.7344 -73.3475 359° North 411 473 33,900 360 Climbing Boston Center
07:09PM 42.8533 -73.3464 360° North 423 487 34,000  Climbing Boston Center
07:10PM 42.9633 -73.3792 348° North 415 478 34,000  Level Boston Center
07:11PM 43.0353 -73.4911 311° West 379 436 34,100 660 Climbing Boston Center
07:12PM 43.0736 -73.6225 292° West 359 413 35,400 900 Climbing Boston Center
07:13PM 43.1097 -73.7511 291° West 359 413 36,000 240 Climbing Boston Center
07:14PM 43.1458 -73.8800 291° West 359 413 36,000  Level Boston Center
07:15PM 43.1817 -74.0119 290° West 369 425 36,000  Level Boston Center
07:16PM 43.2192 -74.1467 291° West 375 432 36,000  Level Boston Center
07:17PM 43.2567 -74.2789 291° West 375 432 36,000  Level Boston Center
07:18PM 43.2942 -74.4083 292° West 375 432 36,000  Level Boston Center
07:19PM 43.3314 -74.5408 291° West 375 432 36,000  Level Boston Center
07:20PM 43.3683 -74.6764 291° West 375 432 36,000  Level Boston Center
07:21PM 43.4056 -74.8064 292° West 375 432 36,000  Level Boston Center
07:22PM 43.4442 -74.9425 291° West 375 432 36,000  Level Boston Center
07:23PM 43.4808 -75.0756 291° West 375 432 36,000  Level Boston Center
07:24PM 43.5211 -75.2261 290° West 375 432 36,000  Level Boston Center
07:25PM 43.5592 -75.3628 291° West 375 432 36,000  Level Boston Center
07:26PM 43.5914 -75.4903 289° West 370 426 36,000  Level Boston Center
07:27PM 43.6253 -75.6211 290° West 370 426 36,000  Level Boston Center
07:28PM 43.6592 -75.7492 290° West 370 426 36,000  Level Boston Center
07:29PM 43.6928 -75.8803 290° West 370 426 36,000  Level Boston Center
07:30PM 43.7283 -76.0175 290° West 370 426 36,000  Level Boston Center
07:31PM 43.7636 -76.1489 290° West 370 426 36,000  Level Boston Center
07:32PM 43.7969 -76.2806 289° West 370 426 36,000  Level Boston Center
07:33PM 43.8300 -76.4150 289° West 370 426 36,000  Level Boston Center
07:34PM 43.8647 -76.5469 290° West 375 432 36,000  Level Boston Center
07:36PM 43.9333 -76.7333 297° West 370 426 36,000  Level Toronto Center
07:37PM 43.9833 -76.8833 295° West 370 426 36,000  Level Toronto Center
07:38PM 44.0333 -76.9833 305° West 360 414 36,000  Level Toronto Center
07:39PM 44.0833 -77.1333 295° West 360 414 36,000  Level Toronto Center
07:40PM 44.1333 -77.2333 305° West 360 414 36,000  Level Toronto Center
07:41PM 44.1833 -77.3500 301° West 360 414 36,000  Level Toronto Center
07:42PM 44.2500 -77.4667 309° West 360 414 36,000  Level Toronto Center
07:43PM 44.3000 -77.6000 298° West 370 426 36,000  Level Toronto Center
07:44PM 44.3167 -77.7500 279° West 360 414 36,000  Level Toronto Center
07:45PM 44.3333 -77.8667 281° West 360 414 36,000  Level Toronto Center
07:46PM 44.3333 -78.0167 270° West 360 414 36,000  Level Toronto Center
07:47PM 44.3333 -78.1333 270° West 360 414 36,000  Level Toronto Center
07:48PM 44.3333 -78.3000 270° West 360 414 36,000  Level Toronto Center
07:49PM 44.3500 -78.4500 279° West 360 414 36,000  Level Toronto Center
07:50PM 44.3667 -78.5833 280° West 360 414 36,000  Level Toronto Center
07:51PM 44.3667 -78.7167 270° West 360 414 36,000  Level Toronto Center
07:52PM 44.3667 -78.8333 270° West 360 414 36,000  Level Toronto Center
07:53PM 44.3833 -79.0000 278° West 360 414 36,000  Level Toronto Center
07:54PM 44.3833 -79.1167 270° West 360 414 36,000  Level Toronto Center
07:55PM 44.3833 -79.2833 270° West 360 414 36,000  Level Toronto Center
07:56PM 44.3833 -79.4000 270° West 360 414 36,000  Level Toronto Center
07:57PM 44.3667 -79.5333 260° West 350 403 36,000  Level Toronto Center
07:58PM 44.3333 -79.6833 253° West 360 414 36,000  Level Toronto Center
07:59PM 44.2833 -79.8000 239° Southwest 360 414 36,000  Level Toronto Center
08:00PM 44.2500 -79.9333 251° West 360 414 36,000  Level Toronto Center
08:01PM 44.2167 -80.0500 248° West 360 414 36,000  Level Toronto Center
08:02PM 44.1667 -80.1833 242° Southwest 360 414 36,000  Level Toronto Center
08:03PM 44.1333 -80.3000 248° West 360 414 36,000  Level Toronto Center
08:04PM 44.1000 -80.4500 253° West 360 414 36,000  Level Toronto Center
08:05PM 44.0500 -80.5667 239° Southwest 360 414 36,000  Level Toronto Center
08:06PM 44.0167 -80.7000 251° West 360 414 36,000  Level Toronto Center
08:07PM 43.9667 -80.8167 239° Southwest 360 414 36,000  Level Toronto Center
08:08PM 43.9167 -80.9500 243° Southwest 370 426 36,000  Level Toronto Center
08:09PM 43.8667 -81.0833 243° Southwest 370 426 36,000  Level Toronto Center
08:10PM 43.8333 -81.2000 248° West 370 426 36,000  Level Toronto Center
08:11PM 43.7833 -81.3500 245° Southwest 370 426 36,000  Level Toronto Center
08:12PM 43.7500 -81.4500 245° Southwest 370 426 36,000  Level Toronto Center
08:13PM 43.7167 -81.6000 253° West 370 426 36,000  Level Toronto Center
08:14PM 43.6667 -81.7000 235° Southwest 370 426 36,000  Level Toronto Center
08:15PM 43.6333 -81.8500 253° West 370 426 36,000  Level Toronto Center
08:16PM 43.5667 -81.9833 235° Southwest 370 426 36,000  Level Toronto Center
08:17PM 43.5333 -82.1000 249° West 370 426 36,000  Level Toronto Center
08:18PM 43.4833 -82.2333 243° Southwest 370 426 36,000  Level Toronto Center
08:19PM 43.4500 -82.3500 249° West 370 426 36,000 -180 Level Toronto Center
08:20PM 43.4167 -82.4833 251° West 370 426 35,700 -2,100 Descending Toronto Center
08:21PM 43.3758 -82.6139 247° West 369 425 32,000 -1,020 Descending Cleveland Center
08:22PM 43.3383 -82.7353 247° West 375 432 33,800 360 Climbing Cleveland Center
08:23PM 43.3044 -82.8711 251° West 381 438 32,800 -900 Descending Cleveland Center
08:24PM 43.2725 -83.0153 253° West 388 447 32,000 -420 Descending Cleveland Center
08:25PM 43.2381 -83.1508 251° West 388 447 32,000  Level Cleveland Center
08:26PM 43.2036 -83.2919 252° West 388 447 32,000  Level Cleveland Center
08:27PM 43.1692 -83.4297 251° West 388 447 32,000  Level Cleveland Center
08:28PM 43.1342 -83.5733 252° West 388 447 32,000  Level Cleveland Center
08:29PM 43.0992 -83.7194 252° West 400 460 32,000  Level Cleveland Center
08:30PM 43.0661 -83.8600 252° West 400 460 32,000  Level Cleveland Center
08:31PM 43.0286 -84.0000 250° West 400 460 32,000  Level Cleveland Center
08:32PM 42.9950 -84.1431 252° West 400 460 32,000  Level Cleveland Center
08:33PM 42.9594 -84.2828 251° West 400 460 32,000  Level Cleveland Center
08:34PM 42.9100 -84.4817 251° West 388 447 32,000  Level Chicago Center
08:35PM 42.8800 -84.6214 254° West 386 444 32,000  Level Chicago Center
08:36PM 42.8653 -84.7692 262° West 394 453 32,000  Level Chicago Center
08:37PM 42.8494 -84.9156 262° West 391 450 32,000  Level Chicago Center
08:38PM 42.8344 -85.0611 262° West 390 449 32,000 -240 Level Chicago Center
08:39PM 42.8178 -85.2083 261° West 392 451 31,600 -720 Descending Chicago Center
08:40PM 42.8036 -85.3458 262° West 373 429 30,600 -1,020 Descending Chicago Center
08:41PM 42.7881 -85.4808 261° West 362 417 29,600 -1,380 Descending Chicago Center
08:42PM 42.7608 -85.6400 257° West 358 412 27,800 -1,680 Descending Chicago Center
08:43PM 42.7383 -85.7697 257° West 353 406 26,200 -1,620 Descending Chicago Center
08:44PM 42.7153 -85.8953 256° West 344 396 24,600 -1,560 Descending Chicago Center
08:46PM 42.6928 -86.0178 256° West 335 386 23,100 -1,440 Descending Chicago Center
08:47PM 42.6700 -86.1383 256° West 329 379 21,700 -1,440 Descending Chicago Center
08:48PM 42.6483 -86.2558 256° West 322 371 20,200 -840 Descending Chicago Center
08:49PM 42.6269 -86.3692 256° West 312 359 20,000 -240 Descending Chicago Center
08:50PM 42.6056 -86.4831 256° West 311 358 19,800 -840 Descending Chicago Center
08:51PM 42.5850 -86.5944 256° West 306 352 18,300 -1,560 Descending Chicago Center
08:52PM 42.5619 -86.7214 256° West 297 342 16,700 -1,560 Descending Chicago Center
08:53PM 42.5339 -86.8244 250° West 285 328 15,200 -1,380 Descending Chicago Center
08:54PM 42.5067 -86.9244 250° West 283 326 13,900 -1,320 Descending Chicago Center
08:55PM 42.4800 -87.0256 250° West 284 327 12,500 -1,380 Descending Chicago Center
08:56PM 42.4522 -87.1231 249° West 278 320 11,100 -1,260 Descending Chicago Center
08:57PM 42.4253 -87.2208 250° West 278 320 10,000 -540 Descending Chicago Center
08:58PM 42.3997 -87.3119 249° West 262 302 10,000  Level Chicago Center
08:59PM 42.3717 -87.4139 250° West 256 295 10,000  Level Chicago Center
09:00PM 42.3272 -87.4878 231° Southwest 255 293 10,000  Level Chicago Center
09:01PM 42.2728 -87.5533 222° Southwest 263 303 10,000  Level Chicago Center
09:02PM 42.2156 -87.6233 222° Southwest 226 260 10,000 -420 Level Chicago Center
09:03PM 42.1731 -87.6744 222° Southwest 209 241 9,200 -1,080 Descending Chicago Center
09:04PM 42.1303 -87.7272 222° Southwest 210 242 7,900 -1,320 Descending Chicago Center
09:04PM 42.1000 -87.7333 189° South 221 254 7,400 -600 Descending Chicago TRACON
09:05PM 42.0500 -87.7500 194° South 187 215 7,100 -180 Descending Chicago TRACON
09:06PM 42.0000 -87.7833 206° Southwest 170 196 7,100  Level Chicago TRACON
09:08PM 41.9667 -87.8333 228° Southwest 171 197 7,100  Level Chicago TRACON
09:09PM 41.9500 -87.8833 246° West 172 198 7,100  Level Chicago TRACON
09:10PM 41.9333 -87.9333 246° West 184 212 7,100 -300 Level Chicago TRACON
09:11PM 41.9167 -88.0000 251° West 169 194 6,500 -900 Descending Chicago TRACON
09:12PM 41.9000 -88.0667 251° West 180 207 5,400 -720 Descending Chicago TRACON
09:13PM 41.9000 -88.1333 270° West 181 208 5,100 -240 Descending Chicago TRACON
09:13PM 41.8994 -88.1678 269° West 178 205 5,000 -60 Descending Chicago Center
09:14PM 41.8983 -88.2353 269° West 180 207 5,000  Level Chicago Center
09:15PM 41.8972 -88.3158 269° West 181 208 5,000  Level Chicago Center
09:16PM 41.8961 -88.3836 269° West 181 208 5,000  Level Chicago Center
09:17PM 41.8961 -88.4508 270° West 182 209 5,000  Level Chicago Center
09:18PM 41.9464 -88.4614 351° North 200 230 5,000  Level Chicago Center
09:19PM 41.9664 -88.4033 65° Northeast 179 206 5,000  Level Chicago Center
09:20PM 41.9664 -88.3333 90° East 183 211 5,000  Level Chicago Center
09:21PM 41.9675 -88.2644 89° East 185 213 5,000 -300 Level Chicago Center
09:23PM 41.9672 -88.1817 90° East 185 213 4,400 -780 Descending Chicago Center
09:24PM 41.9683 -88.1186 89° East 179 206 3,500 -840 Descending Chicago Center
09:25PM 41.9667 -88.0667 92° East 125 144 2,700 -720 Descending Chicago TRACON
09:26PM 41.9667 -88.0167 90° East 121 139 2,100 -660 Descending Chicago TRACON
09:27PM 41.9667 -87.9833 90° East 127 146 1,400 -720 Descending Chicago TRACON